createdAt,value
2018-08-23T00:00:46.990Z,10.97
2018-08-23T00:05:31.504Z,10.67
2018-08-23T00:10:15.067Z,15.30
2018-08-23T00:15:02.980Z,14.40
2018-08-23T00:19:46.368Z,11.90
2018-08-23T00:24:29.868Z,12.47
2018-08-23T00:29:17.639Z,12.83
2018-08-23T00:34:01.270Z,13.40
2018-08-23T00:38:44.559Z,13.77
2018-08-23T00:43:27.849Z,12.00
2018-08-23T00:48:11.405Z,13.50
2018-08-23T00:52:54.718Z,12.83
2018-08-23T00:57:38.189Z,12.60
2018-08-23T01:02:21.475Z,13.40
2018-08-23T01:07:05.810Z,12.90
2018-08-23T01:11:49.068Z,15.53
2018-08-23T01:16:33.604Z,14.60
2018-08-23T01:21:17.230Z,12.27
2018-08-23T01:26:01.618Z,13.47
2018-08-23T01:30:46.293Z,12.23
2018-08-23T01:35:29.761Z,13.93
2018-08-23T01:40:13.163Z,14.07
2018-08-23T01:44:56.677Z,12.43
2018-08-23T01:49:40.062Z,12.50
2018-08-23T01:54:24.634Z,16.00
2018-08-23T01:59:07.949Z,14.80
2018-08-23T02:03:51.377Z,12.63
2018-08-23T02:08:34.681Z,14.30
2018-08-23T02:13:23.208Z,12.57
2018-08-23T02:18:06.563Z,15.57
2018-08-23T02:22:50.025Z,14.00
2018-08-23T02:27:33.368Z,13.60
2018-08-23T02:32:16.741Z,14.40
2018-08-23T02:37:00.293Z,13.80
2018-08-23T02:41:43.592Z,13.13
2018-08-23T02:46:32.910Z,12.97
2018-08-23T02:51:16.274Z,13.43
2018-08-23T02:56:09.679Z,11.47
2018-08-23T03:00:52.951Z,16.03
2018-08-23T03:05:39.739Z,16.20
2018-08-23T03:10:23.057Z,11.90
2018-08-23T03:15:07.548Z,12.83
2018-08-23T03:20:11.209Z,12.60
2018-08-23T03:24:56.437Z,13.80
2018-08-23T03:29:39.714Z,14.33
2018-08-23T03:34:24.288Z,12.93
2018-08-23T03:39:09.687Z,13.27
2018-08-23T03:43:53.093Z,13.73
2018-08-23T03:48:36.433Z,14.90
2018-08-23T03:53:21.799Z,17.03
2018-08-23T03:58:05.148Z,14.63
2018-08-23T04:02:48.562Z,15.77
2018-08-23T04:07:32.847Z,15.30
2018-08-23T04:12:16.267Z,18.67
2018-08-23T04:16:59.702Z,15.37
2018-08-23T04:21:43.976Z,14.27
2018-08-23T04:26:28.586Z,17.70
2018-08-23T04:31:11.919Z,13.40
2018-08-23T04:35:56.320Z,12.80
2018-08-23T04:40:40.601Z,12.10
2018-08-23T04:45:26.973Z,12.03
2018-08-23T04:50:10.369Z,12.03
2018-08-23T04:54:54.778Z,12.23
2018-08-23T04:59:38.259Z,10.57
2018-08-23T05:04:21.655Z,9.53
2018-08-23T05:09:08.798Z,11.57
2018-08-23T05:13:52.274Z,9.87
2018-08-23T05:18:35.657Z,11.83
2018-08-23T05:23:20.309Z,8.50
2018-08-23T05:28:19.502Z,9.17
2018-08-23T05:33:08.114Z,12.43
2018-08-23T05:37:51.493Z,9.20
2018-08-23T05:42:50.161Z,8.07
2018-08-23T05:47:33.770Z,8.23
2018-08-23T05:52:17.097Z,8.93
2018-08-23T05:57:00.481Z,8.57
2018-08-23T06:01:44.866Z,6.70
2018-08-23T06:06:29.023Z,8.23
2018-08-23T06:11:12.337Z,7.73
2018-08-23T06:15:57.278Z,7.57
2018-08-23T06:20:40.665Z,7.67
2018-08-23T06:25:24.233Z,5.93
2018-08-23T06:30:07.364Z,7.43
2018-08-23T06:34:52.418Z,9.20
2018-08-23T06:39:37.496Z,14.63
2018-08-23T06:44:21.633Z,11.33
2018-08-23T06:49:05.971Z,12.27
2018-08-23T06:53:52.450Z,8.03
2018-08-23T06:58:35.736Z,4.33
2018-08-23T07:03:19.256Z,6.50
2018-08-23T07:08:14.130Z,9.70
2018-08-23T07:12:59.279Z,7.37
2018-08-23T07:17:48.313Z,4.63
2018-08-23T07:22:33.733Z,3.63
2018-08-23T07:27:18.933Z,3.63
2018-08-23T07:32:05.647Z,6.93
2018-08-23T07:38:18.460Z,6.73
2018-08-23T07:43:02.194Z,7.07
2018-08-23T07:47:50.558Z,5.30
2018-08-23T07:52:34.004Z,8.47
2018-08-23T07:57:17.465Z,3.50
2018-08-23T08:02:00.774Z,6.43
2018-08-23T08:06:45.181Z,4.63
2018-08-23T08:11:34.879Z,4.07
2018-08-23T08:16:18.378Z,6.53
2018-08-23T08:21:03.119Z,5.22
2018-08-23T08:25:47.489Z,6.50
2018-08-23T08:30:42.423Z,9.63
2018-08-23T08:35:26.029Z,14.90
2018-08-23T08:40:18.650Z,6.75
2018-08-23T08:45:09.389Z,5.62
2018-08-23T08:49:52.916Z,8.20
2018-08-23T08:54:36.615Z,4.67
2018-08-23T08:59:20.112Z,9.58
2018-08-23T09:04:04.675Z,4.17
2018-08-23T09:08:48.478Z,5.87
2018-08-23T09:13:37.459Z,4.87
2018-08-23T09:18:25.014Z,4.67
2018-08-23T09:23:08.469Z,5.90
2018-08-23T09:27:52.567Z,5.00
2018-08-23T09:32:37.115Z,9.10
2018-08-23T09:37:20.354Z,9.28
2018-08-23T09:42:03.563Z,4.42
2018-08-23T09:46:52.974Z,7.22
2018-08-23T09:51:36.432Z,4.90
2018-08-23T09:56:26.163Z,7.55
2018-08-23T10:01:14.753Z,5.05
2018-08-23T10:06:02.434Z,4.60
2018-08-23T10:10:51.125Z,3.52
2018-08-23T10:15:42.338Z,2.92
2018-08-23T10:20:30.944Z,3.80
2018-08-23T10:25:31.348Z,6.95
2018-08-23T10:30:14.738Z,4.08
2018-08-23T10:34:58.330Z,3.30
2018-08-23T10:39:41.772Z,3.65
2018-08-23T10:44:25.327Z,3.95
2018-08-23T10:49:08.740Z,7.35
2018-08-23T10:53:52.366Z,10.35
2018-08-23T10:58:35.820Z,14.40
2018-08-23T11:03:19.599Z,7.95
2018-08-23T11:08:08.367Z,8.05
2018-08-23T11:12:57.185Z,8.20
2018-08-23T11:17:46.925Z,14.63
2018-08-23T11:22:35.706Z,10.40
2018-08-23T11:27:19.035Z,8.28
2018-08-23T11:32:03.360Z,3.95
2018-08-23T11:36:46.752Z,5.92
2018-08-23T11:41:30.209Z,4.20
2018-08-23T11:46:18.327Z,7.15
2018-08-23T11:51:01.625Z,3.72
2018-08-23T11:55:46.213Z,7.50
2018-08-23T12:00:30.889Z,2.83
2018-08-23T12:05:16.994Z,4.37
2018-08-23T12:10:00.543Z,4.25
2018-08-23T12:14:47.859Z,4.10
2018-08-23T12:19:31.101Z,3.50
2018-08-23T12:24:14.660Z,11.30
2018-08-23T12:29:03.393Z,7.58
2018-08-23T12:33:46.925Z,4.55
2018-08-23T12:38:35.779Z,7.15
2018-08-23T12:43:21.686Z,4.62
2018-08-23T12:48:04.924Z,4.58
2018-08-23T12:52:48.481Z,4.75
2018-08-23T12:57:31.866Z,7.75
2018-08-23T13:02:15.598Z,4.50
2018-08-23T13:06:59.006Z,5.70
2018-08-23T13:11:42.359Z,4.05
2018-08-23T13:16:27.005Z,7.37
2018-08-23T13:21:12.528Z,3.42
2018-08-23T13:25:58.594Z,7.95
2018-08-23T13:30:42.450Z,4.85
2018-08-23T13:35:26.282Z,8.13
2018-08-23T13:40:15.078Z,6.72
2018-08-23T13:44:59.567Z,4.30
2018-08-23T13:49:42.993Z,3.90
2018-08-23T13:54:30.028Z,6.95
2018-08-23T13:59:13.254Z,5.70
2018-08-23T14:03:57.729Z,8.50
2018-08-23T14:08:40.969Z,3.87
2018-08-23T14:13:24.572Z,3.80
2018-08-23T14:18:07.960Z,8.03
2018-08-23T14:22:52.379Z,4.25
2018-08-23T14:27:35.534Z,7.70
2018-08-23T14:32:18.994Z,4.72
2018-08-23T14:37:02.299Z,8.20
2018-08-23T14:41:45.735Z,4.87
2018-08-23T14:46:34.511Z,9.67
2018-08-23T14:51:19.087Z,4.10
2018-08-23T14:56:07.815Z,3.33
2018-08-23T15:00:51.219Z,4.00
2018-08-23T15:05:37.463Z,6.97
2018-08-23T15:10:20.845Z,6.45
2018-08-23T15:15:08.861Z,9.00
2018-08-23T15:19:52.049Z,4.07
2018-08-23T15:24:35.437Z,4.00
2018-08-23T15:29:18.960Z,4.30
2018-08-23T15:34:03.681Z,2.63
2018-08-23T15:38:47.044Z,8.07
2018-08-23T15:43:30.545Z,5.00
2018-08-23T15:48:14.078Z,8.93
2018-08-23T15:52:57.661Z,5.13
2018-08-23T15:57:40.969Z,5.60
2018-08-23T16:02:25.453Z,4.20
2018-08-23T16:07:08.848Z,10.13
2018-08-23T16:11:52.473Z,11.07
2018-08-23T16:16:46.239Z,3.60
2018-08-23T16:21:36.505Z,5.13
2018-08-23T16:26:19.833Z,4.87
2018-08-23T16:31:03.113Z,4.90
2018-08-23T16:35:46.504Z,4.30
2018-08-23T16:40:31.498Z,5.47
2018-08-23T16:45:16.000Z,5.70
2018-08-23T16:49:59.846Z,12.40
2018-08-23T16:54:43.404Z,3.83
2018-08-23T16:59:26.552Z,8.23
2018-08-23T17:04:10.148Z,4.80
2018-08-23T17:08:54.169Z,2.93
2018-08-23T17:13:38.315Z,8.70
2018-08-23T17:18:21.615Z,5.00
2018-08-23T17:23:05.209Z,8.23
2018-08-23T17:27:48.589Z,13.57
2018-08-23T17:32:35.230Z,5.10
2018-08-23T17:37:19.731Z,3.50
2018-08-23T17:42:03.218Z,5.20
2018-08-23T17:46:46.597Z,5.80
2018-08-23T17:51:30.536Z,5.50
2018-08-23T17:56:14.037Z,8.13
2018-08-23T18:00:57.438Z,5.87
2018-08-23T18:05:41.123Z,3.90
2018-08-23T18:10:24.566Z,5.03
2018-08-23T18:15:10.172Z,6.17
2018-08-23T18:19:53.536Z,6.33
2018-08-23T18:24:37.051Z,5.13
2018-08-23T18:29:20.901Z,3.93
2018-08-23T18:34:05.526Z,4.80
2018-08-23T18:38:49.756Z,5.30
2018-08-23T18:43:33.429Z,5.90
2018-08-23T18:48:16.858Z,7.73
2018-08-23T18:53:00.494Z,6.27
2018-08-23T18:57:43.892Z,4.63
2018-08-23T19:02:28.444Z,5.07
2018-08-23T19:07:17.121Z,4.80
2018-08-23T19:12:00.832Z,5.87
2018-08-23T19:16:49.791Z,5.07
2018-08-23T19:21:33.349Z,5.40
2018-08-23T19:26:16.784Z,5.27
2018-08-23T19:30:59.970Z,6.03
2018-08-23T19:35:43.261Z,5.70
2018-08-23T19:40:29.757Z,3.93
2018-08-23T19:45:14.392Z,6.40
2018-08-23T19:50:02.382Z,7.20
2018-08-23T19:54:45.870Z,7.73
2018-08-23T19:59:29.303Z,3.87
2018-08-23T20:04:13.960Z,6.73
2018-08-23T20:08:57.288Z,6.67
2018-08-23T20:13:41.732Z,3.73
2018-08-23T20:18:25.109Z,5.10
2018-08-23T20:23:09.570Z,3.70
2018-08-23T20:27:52.920Z,4.50
2018-08-23T20:32:37.163Z,6.47
2018-08-23T20:37:20.568Z,8.53
2018-08-23T20:42:04.015Z,5.63
2018-08-23T20:46:47.376Z,3.20
2018-08-23T20:51:32.643Z,5.67
2018-08-23T20:56:15.988Z,7.93
2018-08-23T21:00:59.481Z,7.30
2018-08-23T21:05:42.921Z,7.40
2018-08-23T21:10:26.286Z,5.60
2018-08-23T21:15:13.021Z,5.67
2018-08-23T21:19:56.435Z,5.40
2018-08-23T21:24:40.089Z,5.83
2018-08-23T21:29:23.268Z,4.37
2018-08-23T21:34:06.883Z,3.43
2018-08-23T21:38:50.309Z,4.47
2018-08-23T21:43:36.831Z,4.47
2018-08-23T21:48:20.491Z,4.67
2018-08-23T21:53:04.300Z,8.73
2018-08-23T21:57:47.768Z,4.07
2018-08-23T22:02:31.286Z,4.53
2018-08-23T22:07:15.349Z,3.80
2018-08-23T22:11:59.872Z,3.43
2018-08-23T22:16:44.332Z,5.77
2018-08-23T22:21:27.709Z,3.00
2018-08-23T22:26:11.165Z,5.23
2018-08-23T22:30:58.506Z,5.90
2018-08-23T22:35:42.058Z,2.20
2018-08-23T22:40:25.412Z,6.70
2018-08-23T22:45:08.726Z,5.43
2018-08-23T22:49:52.050Z,4.57
2018-08-23T22:54:36.594Z,9.97
2018-08-23T22:59:19.955Z,8.03
2018-08-23T23:04:09.720Z,5.90
2018-08-23T23:08:53.133Z,6.33
2018-08-23T23:13:36.609Z,8.87
2018-08-23T23:18:19.864Z,4.27
2018-08-23T23:23:04.370Z,3.13
2018-08-23T23:27:47.709Z,4.67
2018-08-23T23:32:31.065Z,4.13
2018-08-23T23:37:14.453Z,5.40
2018-08-23T23:41:57.990Z,6.13
2018-08-23T23:46:41.417Z,5.13
2018-08-23T23:51:24.889Z,5.93
2018-08-23T23:56:08.365Z,3.97
